createdAt,value
2022-10-31T00:00:50.193Z,14.63
2022-10-31T00:03:18.621Z,14.70
2022-10-31T00:05:48.281Z,14.87
2022-10-31T00:08:16.479Z,14.84
2022-10-31T00:10:46.743Z,14.34
2022-10-31T00:13:15.945Z,14.60
2022-10-31T00:15:43.795Z,14.70
2022-10-31T00:18:12.561Z,14.75
2022-10-31T00:20:41.100Z,14.56
2022-10-31T00:23:09.082Z,14.37
2022-10-31T00:25:38.428Z,14.66
2022-10-31T00:28:09.406Z,14.71
2022-10-31T00:30:37.180Z,14.09
2022-10-31T00:33:05.456Z,13.62
2022-10-31T00:35:33.305Z,13.84
2022-10-31T00:38:01.318Z,14.06
2022-10-31T00:40:29.140Z,14.15
2022-10-31T00:42:57.111Z,14.30
2022-10-31T00:45:26.486Z,14.42
2022-10-31T00:47:54.659Z,14.48
2022-10-31T00:50:22.522Z,14.52
2022-10-31T00:52:50.245Z,14.38
2022-10-31T00:55:18.475Z,14.19
2022-10-31T00:57:48.437Z,14.24
2022-10-31T01:00:16.995Z,14.17
2022-10-31T01:02:46.564Z,14.02
2022-10-31T01:05:14.658Z,14.01
2022-10-31T01:07:43.201Z,14.10
2022-10-31T01:10:11.732Z,13.99
2022-10-31T01:12:39.776Z,14.12
2022-10-31T01:15:09.257Z,14.17
2022-10-31T01:17:36.995Z,13.44
2022-10-31T01:20:07.797Z,12.98
2022-10-31T01:22:36.069Z,12.77
2022-10-31T01:25:04.673Z,12.80
2022-10-31T01:27:33.291Z,13.25
2022-10-31T01:30:01.059Z,13.44
2022-10-31T01:32:29.755Z,13.23
2022-10-31T01:34:57.474Z,13.64
2022-10-31T01:37:26.581Z,13.25
2022-10-31T01:39:54.313Z,13.26
2022-10-31T01:42:24.104Z,13.40
2022-10-31T01:44:59.038Z,13.41
2022-10-31T01:47:39.394Z,13.58
2022-10-31T01:50:14.185Z,13.47
2022-10-31T01:52:46.555Z,13.82
2022-10-31T01:55:18.293Z,13.66
2022-10-31T01:57:50.359Z,13.65
2022-10-31T02:00:19.802Z,13.68
2022-10-31T02:02:48.509Z,13.91
2022-10-31T02:05:19.605Z,13.97
2022-10-31T02:07:55.522Z,14.17
2022-10-31T02:10:30.723Z,14.40
2022-10-31T02:13:02.211Z,14.45
2022-10-31T02:15:31.834Z,14.42
2022-10-31T02:18:00.590Z,14.43
2022-10-31T02:20:34.489Z,14.45
2022-10-31T02:23:53.962Z,14.44
2022-10-31T02:26:46.901Z,14.44
2022-10-31T02:29:42.145Z,14.42
2022-10-31T02:32:16.878Z,14.24
2022-10-31T02:34:53.522Z,14.12
2022-10-31T02:37:28.077Z,14.14
2022-10-31T02:40:03.271Z,14.22
2022-10-31T02:42:55.356Z,14.17
2022-10-31T02:45:29.370Z,13.83
2022-10-31T02:48:04.077Z,13.83
2022-10-31T02:50:36.078Z,13.97
2022-10-31T02:53:05.198Z,14.01
2022-10-31T02:55:49.255Z,13.91
2022-10-31T02:58:21.699Z,13.99
2022-10-31T03:01:00.933Z,13.91
2022-10-31T03:03:37.238Z,13.90
2022-10-31T03:06:15.643Z,13.80
2022-10-31T03:08:52.587Z,13.45
2022-10-31T03:11:25.947Z,12.71
2022-10-31T03:14:02.964Z,12.84
2022-10-31T03:16:42.049Z,12.69
2022-10-31T03:19:14.481Z,12.97
2022-10-31T03:21:46.731Z,13.48
2022-10-31T03:24:17.007Z,13.73
2022-10-31T03:26:51.786Z,13.46
2022-10-31T03:29:24.186Z,13.34
2022-10-31T03:31:56.660Z,13.48
2022-10-31T03:34:26.217Z,13.51
2022-10-31T03:36:58.253Z,12.88
2022-10-31T03:39:26.522Z,12.99
2022-10-31T03:41:59.451Z,13.32
2022-10-31T03:44:30.028Z,13.36
2022-10-31T03:47:02.614Z,12.84
2022-10-31T03:49:33.644Z,13.10
2022-10-31T03:52:07.554Z,13.43
2022-10-31T03:54:42.461Z,13.50
2022-10-31T03:57:20.502Z,13.25
2022-10-31T03:59:53.645Z,13.42
2022-10-31T04:02:24.765Z,13.45
2022-10-31T04:04:54.687Z,13.57
2022-10-31T04:07:25.613Z,13.64
2022-10-31T04:09:54.468Z,13.30
2022-10-31T04:12:26.053Z,13.29
2022-10-31T04:15:09.184Z,13.47
2022-10-31T04:17:42.208Z,13.49
2022-10-31T04:20:12.418Z,13.39
2022-10-31T04:22:40.993Z,12.81
2022-10-31T04:25:09.968Z,12.44
2022-10-31T04:27:39.399Z,11.91
2022-10-31T04:30:10.263Z,12.04
2022-10-31T04:32:40.949Z,12.74
2022-10-31T04:35:09.327Z,12.95
2022-10-31T04:37:38.575Z,12.19
2022-10-31T04:40:07.244Z,12.39
2022-10-31T04:42:43.923Z,12.58
2022-10-31T04:45:15.506Z,12.93
2022-10-31T04:47:46.423Z,12.72
2022-10-31T04:50:14.314Z,13.00
2022-10-31T04:52:44.518Z,13.01
2022-10-31T04:55:15.716Z,13.10
2022-10-31T04:58:02.262Z,12.94
2022-10-31T05:00:30.517Z,12.94
2022-10-31T05:03:00.143Z,12.76
2022-10-31T05:05:31.061Z,13.00
2022-10-31T05:08:02.779Z,13.19
2022-10-31T05:10:33.074Z,13.20
2022-10-31T05:13:04.435Z,13.01
2022-10-31T05:15:41.830Z,12.75
2022-10-31T05:18:28.234Z,12.56
2022-10-31T05:21:05.255Z,12.70
2022-10-31T05:23:38.420Z,12.59
2022-10-31T05:26:08.760Z,12.10
2022-10-31T05:28:38.600Z,12.34
2022-10-31T05:31:06.694Z,12.25
2022-10-31T05:33:34.428Z,12.29
2022-10-31T05:36:20.459Z,12.57
2022-10-31T05:39:15.719Z,12.84
2022-10-31T05:41:48.239Z,12.96
2022-10-31T05:44:26.417Z,13.11
2022-10-31T05:47:02.596Z,13.16
2022-10-31T05:49:53.397Z,12.96
2022-10-31T05:52:36.688Z,13.10
2022-10-31T05:55:18.988Z,12.97
2022-10-31T05:58:03.905Z,12.76
2022-10-31T06:00:32.907Z,12.68
2022-10-31T06:05:57.331Z,13.11
2022-10-31T06:08:33.800Z,12.93
2022-10-31T06:11:07.401Z,12.63
2022-10-31T06:14:04.566Z,12.90
2022-10-31T06:16:51.759Z,12.78
2022-10-31T06:19:37.996Z,12.68
2022-10-31T06:22:06.352Z,12.62
2022-10-31T06:24:34.795Z,12.92
2022-10-31T06:27:03.892Z,13.09
2022-10-31T06:29:32.280Z,13.25
2022-10-31T06:32:08.091Z,13.36
2022-10-31T06:34:40.669Z,13.46
2022-10-31T06:37:10.143Z,13.55
2022-10-31T06:39:40.315Z,13.49
2022-10-31T06:42:12.950Z,13.59
2022-10-31T06:44:40.696Z,13.61
2022-10-31T06:48:10.938Z,13.53
2022-10-31T06:50:36.015Z,13.85
2022-10-31T06:53:04.097Z,14.04
2022-10-31T06:55:32.245Z,14.14
2022-10-31T06:58:03.297Z,14.28
2022-10-31T07:00:34.508Z,14.53
2022-10-31T07:03:11.752Z,14.63
2022-10-31T07:05:39.672Z,14.75
2022-10-31T07:08:10.333Z,14.85
2022-10-31T07:10:40.658Z,14.85
2022-10-31T07:13:14.320Z,14.93
2022-10-31T07:15:47.361Z,14.95
2022-10-31T07:18:15.110Z,15.17
2022-10-31T07:20:43.987Z,14.96
2022-10-31T07:23:13.409Z,15.25
2022-10-31T07:25:43.421Z,15.52
2022-10-31T07:28:21.025Z,15.41
2022-10-31T07:30:53.653Z,15.00
2022-10-31T07:33:22.725Z,15.18
2022-10-31T07:36:28.950Z,15.21
2022-10-31T07:39:03.234Z,15.46
2022-10-31T07:41:32.592Z,15.76
2022-10-31T07:44:01.761Z,15.82
2022-10-31T07:46:47.733Z,15.55
2022-10-31T07:49:38.400Z,15.78
2022-10-31T07:52:26.360Z,15.77
2022-10-31T07:55:12.811Z,15.58
2022-10-31T07:57:40.650Z,15.76
2022-10-31T08:00:12.017Z,15.72
2022-10-31T08:02:42.886Z,15.98
2022-10-31T08:05:48.967Z,16.19
2022-10-31T08:08:35.999Z,15.97
2022-10-31T08:11:06.459Z,16.29
2022-10-31T08:13:34.560Z,16.34
2022-10-31T08:16:05.139Z,16.36
2022-10-31T08:18:38.519Z,16.57
2022-10-31T08:21:08.382Z,16.50
2022-10-31T08:23:36.908Z,16.01
2022-10-31T08:26:06.956Z,16.04
2022-10-31T08:28:34.840Z,16.38
2022-10-31T08:31:05.772Z,16.49
2022-10-31T08:33:42.201Z,16.57
2022-10-31T08:36:29.846Z,16.44
2022-10-31T08:39:26.678Z,16.60
2022-10-31T08:41:54.411Z,16.72
2022-10-31T08:44:22.280Z,16.21
2022-10-31T08:46:51.483Z,15.98
2022-10-31T08:49:19.354Z,16.48
2022-10-31T08:51:49.697Z,16.96
2022-10-31T08:54:18.205Z,17.06
2022-10-31T08:57:15.014Z,16.69
2022-10-31T08:59:45.980Z,16.94
2022-10-31T09:02:28.097Z,17.00
2022-10-31T09:05:00.716Z,17.03
2022-10-31T09:07:29.193Z,17.45
2022-10-31T09:09:57.688Z,17.44
2022-10-31T09:12:26.035Z,17.66
2022-10-31T09:15:19.945Z,17.15
2022-10-31T09:17:59.200Z,17.49
2022-10-31T09:20:40.794Z,17.65
2022-10-31T09:23:12.007Z,17.64
2022-10-31T09:25:43.958Z,17.92
2022-10-31T09:28:33.250Z,17.68
2022-10-31T09:31:19.634Z,17.54
2022-10-31T09:34:09.135Z,17.48
2022-10-31T09:36:37.033Z,17.85
2022-10-31T09:39:06.150Z,17.74
2022-10-31T09:41:57.610Z,17.69
2022-10-31T09:44:35.789Z,17.15
2022-10-31T09:47:10.053Z,17.43
2022-10-31T09:50:04.440Z,17.79
2022-10-31T09:52:35.543Z,16.94
2022-10-31T09:55:16.505Z,17.59
2022-10-31T09:57:44.783Z,17.63
2022-10-31T10:00:18.234Z,17.67
2022-10-31T10:02:51.734Z,17.92
2022-10-31T10:05:24.320Z,17.74
2022-10-31T10:08:01.969Z,17.61
2022-10-31T10:10:53.194Z,18.01
2022-10-31T10:14:08.990Z,18.44
2022-10-31T10:16:49.407Z,18.67
2022-10-31T10:19:30.644Z,18.48
2022-10-31T10:22:10.437Z,18.56
2022-10-31T10:25:07.054Z,18.73
2022-10-31T10:27:46.153Z,18.12
2022-10-31T10:30:18.164Z,17.94
2022-10-31T10:32:51.901Z,17.27
2022-10-31T10:35:26.516Z,18.65
2022-10-31T10:38:04.186Z,19.20
2022-10-31T10:40:32.109Z,18.57
2022-10-31T10:43:24.731Z,19.06
2022-10-31T10:46:18.495Z,19.41
2022-10-31T10:48:55.862Z,19.46
2022-10-31T10:51:46.313Z,19.00
2022-10-31T10:54:43.154Z,19.42
2022-10-31T10:57:22.453Z,18.91
2022-10-31T10:59:50.809Z,19.58
2022-10-31T11:02:23.800Z,19.54
2022-10-31T11:04:53.823Z,19.79
2022-10-31T11:07:21.696Z,18.97
2022-10-31T11:09:50.996Z,18.62
2022-10-31T11:12:22.944Z,19.41
2022-10-31T11:14:54.424Z,18.70
2022-10-31T11:17:29.813Z,19.34
2022-10-31T11:20:07.476Z,19.74
2022-10-31T11:22:35.244Z,19.02
2022-10-31T11:25:22.597Z,19.19
2022-10-31T11:28:01.176Z,19.65
2022-10-31T11:30:30.069Z,19.68
2022-10-31T11:32:59.034Z,19.97
2022-10-31T11:35:27.859Z,20.11
2022-10-31T11:37:59.765Z,20.39
2022-10-31T11:40:31.236Z,20.18
2022-10-31T11:43:00.777Z,19.66
2022-10-31T11:45:33.573Z,19.39
2022-10-31T11:48:04.385Z,19.83
2022-10-31T11:50:38.059Z,20.47
2022-10-31T11:53:17.037Z,20.69
2022-10-31T11:55:47.576Z,20.70
2022-10-31T11:58:26.072Z,20.78
2022-10-31T12:00:56.213Z,21.03
2022-10-31T12:03:46.874Z,20.98
2022-10-31T12:06:19.880Z,21.07
2022-10-31T12:08:48.409Z,21.24
2022-10-31T12:11:33.770Z,21.41
2022-10-31T12:14:16.017Z,21.28
2022-10-31T12:16:50.297Z,19.95
2022-10-31T12:19:27.263Z,19.37
2022-10-31T12:22:15.764Z,19.58
2022-10-31T12:25:03.837Z,19.49
2022-10-31T12:27:47.466Z,19.42
2022-10-31T12:30:21.137Z,20.01
2022-10-31T12:33:09.449Z,19.95
2022-10-31T12:35:48.502Z,19.98
2022-10-31T12:38:44.660Z,20.68
2022-10-31T12:41:26.492Z,20.42
2022-10-31T12:44:02.157Z,19.77
2022-10-31T12:46:52.841Z,20.18
2022-10-31T12:49:34.871Z,19.78
2022-10-31T12:52:16.229Z,19.99
2022-10-31T12:55:04.764Z,19.56
2022-10-31T12:57:38.092Z,18.87
2022-10-31T13:00:15.314Z,19.07
2022-10-31T13:02:48.518Z,19.01
2022-10-31T13:05:21.491Z,19.00
2022-10-31T13:07:55.606Z,18.85
2022-10-31T13:10:27.712Z,18.50
2022-10-31T13:12:57.583Z,18.63
2022-10-31T13:15:29.779Z,18.73
2022-10-31T13:18:03.072Z,19.33
2022-10-31T13:20:34.189Z,18.89
2022-10-31T13:23:29.721Z,18.65
2022-10-31T13:26:01.943Z,18.84
2022-10-31T13:28:36.299Z,18.71
2022-10-31T13:31:05.605Z,19.10
2022-10-31T13:33:40.532Z,19.09
2022-10-31T13:36:33.395Z,19.76
2022-10-31T13:39:12.457Z,20.22
2022-10-31T13:41:47.843Z,20.70
2022-10-31T13:44:19.851Z,21.07
2022-10-31T13:46:49.200Z,21.24
2022-10-31T13:49:37.787Z,20.84
2022-10-31T13:52:16.835Z,20.23
2022-10-31T13:54:46.170Z,20.68
2022-10-31T13:57:24.229Z,21.34
2022-10-31T13:59:54.517Z,21.29
2022-10-31T14:02:28.836Z,20.59
2022-10-31T14:05:00.044Z,20.16
2022-10-31T14:07:28.914Z,20.02
2022-10-31T14:10:00.512Z,20.27
2022-10-31T14:12:32.844Z,20.95
2022-10-31T14:15:05.895Z,21.21
2022-10-31T14:17:46.886Z,20.91
2022-10-31T14:20:35.013Z,20.67
2022-10-31T14:23:14.139Z,20.59
2022-10-31T14:25:41.862Z,19.90
2022-10-31T14:28:22.175Z,19.39
2022-10-31T14:30:54.965Z,19.49
2022-10-31T14:33:27.592Z,20.23
2022-10-31T14:36:02.684Z,20.07
2022-10-31T14:38:56.985Z,20.07
2022-10-31T14:41:42.347Z,20.53
2022-10-31T14:44:48.799Z,19.55
2022-10-31T14:47:29.463Z,20.08
2022-10-31T14:50:24.119Z,19.81
2022-10-31T14:53:01.146Z,19.87
2022-10-31T14:55:31.564Z,20.25
2022-10-31T14:58:03.932Z,20.43
2022-10-31T15:00:34.322Z,20.58
2022-10-31T15:03:13.228Z,20.59
2022-10-31T15:05:48.317Z,20.48
2022-10-31T15:08:29.588Z,20.37
2022-10-31T15:11:00.297Z,20.44
2022-10-31T15:13:28.725Z,19.83
2022-10-31T15:15:57.827Z,19.84
2022-10-31T15:18:29.577Z,20.09
2022-10-31T15:20:59.442Z,19.81
2022-10-31T15:23:29.900Z,19.72
2022-10-31T15:26:02.106Z,20.01
2022-10-31T15:28:32.327Z,19.96
2022-10-31T15:31:02.797Z,19.48
2022-10-31T15:33:38.322Z,19.50
2022-10-31T15:36:25.509Z,19.02
2022-10-31T15:38:59.088Z,17.72
2022-10-31T15:41:32.308Z,17.42
2022-10-31T15:44:06.157Z,17.79
2022-10-31T15:46:34.880Z,17.51
2022-10-31T15:49:05.001Z,17.50
2022-10-31T15:51:38.268Z,17.57
2022-10-31T15:54:06.209Z,17.62
2022-10-31T15:56:34.300Z,17.32
2022-10-31T15:59:03.937Z,17.02
2022-10-31T16:01:33.698Z,17.14
2022-10-31T16:04:04.454Z,16.95
2022-10-31T16:06:34.970Z,16.46
2022-10-31T16:09:02.870Z,16.49
2022-10-31T16:11:36.433Z,16.83
2022-10-31T16:14:08.276Z,16.89
2022-10-31T16:16:43.082Z,16.90
2022-10-31T16:19:20.095Z,16.81
2022-10-31T16:21:52.610Z,16.55
2022-10-31T16:24:27.212Z,16.34
2022-10-31T16:26:57.319Z,16.10
2022-10-31T16:29:28.611Z,16.21
2022-10-31T16:31:56.537Z,16.38
2022-10-31T16:34:26.896Z,16.19
2022-10-31T16:36:56.397Z,15.85
2022-10-31T16:39:24.140Z,15.78
2022-10-31T16:41:54.350Z,15.98
2022-10-31T16:44:25.712Z,16.03
2022-10-31T16:47:16.238Z,16.05
2022-10-31T16:49:44.703Z,15.83
2022-10-31T16:52:14.136Z,15.76
2022-10-31T16:54:44.335Z,15.69
2022-10-31T16:57:18.002Z,15.77
2022-10-31T16:59:48.279Z,15.81
2022-10-31T17:02:18.779Z,15.85
2022-10-31T17:04:50.900Z,15.85
2022-10-31T17:07:23.672Z,15.27
2022-10-31T17:09:51.612Z,15.43
2022-10-31T17:12:24.102Z,15.43
2022-10-31T17:14:53.716Z,15.45
2022-10-31T17:17:21.409Z,15.46
2022-10-31T17:19:49.858Z,15.36
2022-10-31T17:22:17.743Z,15.14
2022-10-31T17:24:46.841Z,14.73
2022-10-31T17:27:14.595Z,14.96
2022-10-31T17:29:42.300Z,15.18
2022-10-31T17:32:10.019Z,15.34
2022-10-31T17:34:39.834Z,15.41
2022-10-31T17:37:07.710Z,15.37
2022-10-31T17:39:35.419Z,15.49
2022-10-31T17:42:05.092Z,15.49
2022-10-31T17:44:32.842Z,15.17
2022-10-31T17:47:00.583Z,14.85
2022-10-31T17:49:28.741Z,15.13
2022-10-31T17:51:56.647Z,15.19
2022-10-31T17:54:24.365Z,14.74
2022-10-31T17:56:52.852Z,14.92
2022-10-31T17:59:24.292Z,14.78
2022-10-31T18:01:52.077Z,14.39
2022-10-31T18:04:19.933Z,14.27
2022-10-31T18:06:48.460Z,14.54
2022-10-31T18:09:16.419Z,14.65
2022-10-31T18:11:44.255Z,14.64
2022-10-31T18:14:12.200Z,14.63
2022-10-31T18:21:07.769Z,14.51
2022-10-31T18:23:35.566Z,14.53
2022-10-31T18:26:03.394Z,14.48
2022-10-31T18:28:31.376Z,14.49
2022-10-31T18:31:00.376Z,14.57
2022-10-31T18:33:28.378Z,14.00
2022-10-31T18:35:56.213Z,13.37
2022-10-31T18:38:25.728Z,13.10
2022-10-31T18:40:53.600Z,12.91
2022-10-31T18:43:21.347Z,13.17
2022-10-31T18:45:52.299Z,13.54
2022-10-31T18:48:23.726Z,13.50
2022-10-31T18:50:51.629Z,14.05
2022-10-31T18:53:19.348Z,14.73
2022-10-31T18:55:50.233Z,15.07
2022-10-31T18:58:18.737Z,15.21
2022-10-31T19:00:46.820Z,14.78
2022-10-31T19:03:15.304Z,14.27
2022-10-31T19:05:43.049Z,14.34
2022-10-31T19:08:11.326Z,14.43
2022-10-31T19:10:40.105Z,14.94
2022-10-31T19:13:09.918Z,15.31
2022-10-31T19:15:37.660Z,15.45
2022-10-31T19:18:05.794Z,15.64
2022-10-31T19:20:33.767Z,15.77
2022-10-31T19:23:01.739Z,15.84
2022-10-31T19:25:29.907Z,15.34
2022-10-31T19:27:57.645Z,15.36
2022-10-31T19:30:26.820Z,15.73
2022-10-31T19:32:55.682Z,15.41
2022-10-31T19:35:23.389Z,15.63
2022-10-31T19:37:51.278Z,15.61
2022-10-31T19:40:19.579Z,15.71
2022-10-31T19:42:47.334Z,15.98
2022-10-31T19:45:15.236Z,16.06
2022-10-31T19:47:44.318Z,15.61
2022-10-31T19:50:12.023Z,15.97
2022-10-31T19:52:41.808Z,15.17
2022-10-31T19:55:10.265Z,15.04
2022-10-31T20:00:28.561Z,15.66
2022-10-31T20:02:57.850Z,15.29
2022-10-31T20:05:28.042Z,15.57
2022-10-31T20:07:56.850Z,14.48
2022-10-31T20:10:25.178Z,15.03
2022-10-31T20:12:55.717Z,15.52
2022-10-31T20:15:24.036Z,15.43
2022-10-31T20:17:51.817Z,15.69
2022-10-31T20:20:23.467Z,15.22
2022-10-31T20:22:51.223Z,15.47
2022-10-31T20:25:19.202Z,15.38
2022-10-31T20:27:46.917Z,15.29
2022-10-31T20:30:15.156Z,15.36
2022-10-31T20:32:47.530Z,15.50
2022-10-31T20:35:18.243Z,15.24
2022-10-31T20:37:47.308Z,15.16
2022-10-31T20:40:15.138Z,15.00
2022-10-31T20:42:42.832Z,14.75
2022-10-31T20:45:11.431Z,14.61
2022-10-31T20:47:39.243Z,14.74
2022-10-31T20:50:09.428Z,14.90
2022-10-31T20:52:37.325Z,14.96
2022-10-31T20:55:07.014Z,14.68
2022-10-31T20:57:35.307Z,15.08
2022-10-31T21:00:03.115Z,15.24
2022-10-31T21:02:31.157Z,15.16
2022-10-31T21:04:59.000Z,14.76
2022-10-31T21:07:26.797Z,14.62
2022-10-31T21:09:54.506Z,14.49
2022-10-31T21:12:23.537Z,15.19
2022-10-31T21:14:51.352Z,15.44
2022-10-31T21:17:19.076Z,15.57
2022-10-31T21:19:46.853Z,15.32
2022-10-31T21:22:14.570Z,15.16
2022-10-31T21:24:42.424Z,14.74
2022-10-31T21:27:12.437Z,14.42
2022-10-31T21:29:41.794Z,14.94
2022-10-31T21:32:09.616Z,14.81
2022-10-31T21:34:37.909Z,15.36
2022-10-31T21:37:05.770Z,15.54
2022-10-31T21:39:33.543Z,15.62
2022-10-31T21:42:01.298Z,15.63
2022-10-31T21:44:29.022Z,15.27
2022-10-31T21:46:58.092Z,15.46
2022-10-31T21:49:25.867Z,15.63
2022-10-31T21:51:53.548Z,15.69
2022-10-31T21:54:31.243Z,15.43
2022-10-31T21:57:01.466Z,15.42
2022-10-31T21:59:29.281Z,15.56
2022-10-31T22:02:00.493Z,15.52
2022-10-31T22:04:28.874Z,15.57
2022-10-31T22:06:56.641Z,15.55
2022-10-31T22:09:24.374Z,15.49
2022-10-31T22:11:52.162Z,15.26
2022-10-31T22:14:22.097Z,14.70
2022-10-31T22:16:49.858Z,15.13
2022-10-31T22:19:18.951Z,15.36
2022-10-31T22:21:49.090Z,15.51
2022-10-31T22:24:17.770Z,15.38
2022-10-31T22:26:45.657Z,15.27
2022-10-31T22:29:15.394Z,15.21
2022-10-31T22:31:45.272Z,14.97
2022-10-31T22:34:16.820Z,15.13
2022-10-31T22:36:46.322Z,15.33
2022-10-31T22:39:14.721Z,15.42
2022-10-31T22:41:42.830Z,15.26
2022-10-31T22:44:12.971Z,15.08
2022-10-31T22:46:41.010Z,14.93
2022-10-31T22:49:11.256Z,14.80
2022-10-31T22:51:40.941Z,14.58
2022-10-31T22:54:13.723Z,14.17
2022-10-31T22:56:41.599Z,14.18
2022-10-31T22:59:13.712Z,13.77
2022-10-31T23:01:42.146Z,14.37
2022-10-31T23:06:43.057Z,14.30
2022-10-31T23:09:15.905Z,14.60
2022-10-31T23:11:44.314Z,14.84
2022-10-31T23:14:13.940Z,15.02
2022-10-31T23:16:44.225Z,14.91
2022-10-31T23:19:14.232Z,15.04
2022-10-31T23:22:00.937Z,14.41
2022-10-31T23:24:34.469Z,13.70
2022-10-31T23:27:09.215Z,13.31
2022-10-31T23:29:43.537Z,14.23
2022-10-31T23:32:16.749Z,14.61
2022-10-31T23:34:46.681Z,14.06
2022-10-31T23:37:15.403Z,14.50
2022-10-31T23:39:45.037Z,14.84
2022-10-31T23:42:16.006Z,14.92
2022-10-31T23:44:44.078Z,14.26
2022-10-31T23:47:12.372Z,14.09
2022-10-31T23:49:40.375Z,13.82
2022-10-31T23:52:08.558Z,13.68
2022-10-31T23:54:36.719Z,13.40
2022-10-31T23:57:06.174Z,13.46
2022-10-31T23:59:34.140Z,13.19
